Gilmer, West Virginia
Current Conditions -  °F | °C
As of 3:55 PM on Monday 22 Dec 2014 (Local Time) from KW22 Reporting Station
Overcast Overcast  
Wind Chill: 46°   Ceiling: 3400
Heat Index: 46°   Visibility: 10mi
Dew Point: 41°   Wind: 0mph
Humidity: 81%   Direction: NA
Pressure: 29.96"   Gusts: NA
Location:  38.88°N, 80.72°W
Report Text: KW22 222055Z AUTO 00000KT 10SM BKN034 BKN040 OVC046 08/05 A2996 RMK AO2
Loading
Personal Weather Stations






























Interactive Weather Map New forecast layout! Learn more

10-Day Weather Forecast

Advertisements
Track Severe Weather on mobile